Terminal Aerodrome Forecast
Issued by NWS Corpus Christi, TX

Home | Current Version | Previous Version | Text Only | Print | Product List | Glossary On
Versions: 1 2 3 4 5 6 7 8 9 10 11 12 13 14 15 16 17 18 19 20 21
000
FTUS44 KCRP 240525
TAFCRP
TAF
KCRP 240525Z 2406/2506 14016KT P6SM TSRA SCT015CB BKN025
      TEMPO 2407/2409 VRB25G45KT 1SM +TSRA BR OVC015CB
     FM241500 16015G20KT P6SM VCSH BKN025 OVC150
     FM242000 16015G25KT P6SM SCT025 BKN035
     FM250300 16015KT P6SM SCT015 BKN025=

USA.gov is the U.S. government's official web portal to all federal, state and local government web resources and services.